Time;durP1;ratioP1;P1;durP2;ratioP2;P2;SDS_P1;SDS_P2;PMS_P1;PMS_P2;Temp;Humidity;BMP_temperature;BMP_pressure;BME280_temperature;BME280_humidity;BME280_pressure;Samples;Min_cycle;Max_cycle;Signal;HPM_P1;HPM_P2
2023/12/13 00:01:53;;;;;;;10.73;1.98;;;;;;;5.94;100.00;99930.19;5000222;28;20033;-80
2023/12/13 00:04:19;;;;;;;5.57;1.30;;;;;;;5.87;100.00;99937.97;5000594;28;20045;-80
2023/12/13 00:06:45;;;;;;;3.83;1.23;;;;;;;5.82;100.00;99945.66;5016665;28;20468;-79
2023/12/13 00:09:15;;;;;;;2.65;1.30;;;;;;;5.79;100.00;99951.31;5000152;28;20149;-80
2023/12/13 00:11:43;;;;;;;5.40;1.27;;;;;;;5.79;100.00;99945.13;5032277;28;20025;-79
2023/12/13 00:14:11;;;;;;;1.27;1.05;;;;;;;5.81;100.00;99953.81;5000131;28;20542;-80
2023/12/13 00:16:40;;;;;;;0.95;0.80;;;;;;;5.75;100.00;99955.31;5016840;28;20033;-80
2023/12/13 00:19:06;;;;;;;1.67;1.10;;;;;;;5.70;100.00;99963.81;5016682;28;20029;-80
2023/12/13 00:21:32;;;;;;;3.42;1.95;;;;;;;5.73;100.00;99962.63;5033216;28;20175;-80
2023/12/13 00:23:58;;;;;;;2.78;1.33;;;;;;;5.91;100.00;99970.50;4999743;28;20025;-79
2023/12/13 00:26:23;;;;;;;3.97;1.10;;;;;;;6.05;100.00;99972.53;5031352;28;20041;-79
2023/12/13 00:28:50;;;;;;;4.95;0.93;;;;;;;6.12;100.00;99978.91;4999945;28;20538;-79
2023/12/13 00:31:16;;;;;;;6.57;1.40;;;;;;;6.17;100.00;99986.41;4999682;28;20029;-80
2023/12/13 00:33:42;;;;;;;4.43;2.22;;;;;;;6.19;100.00;99988.91;5014288;28;20393;-80
2023/12/13 00:36:08;;;;;;;1.13;0.80;;;;;;;6.23;100.00;99990.25;5032557;28;20033;-79
2023/12/13 00:38:37;;;;;;;8.05;2.13;;;;;;;6.29;100.00;99990.41;5016162;28;20029;-79
2023/12/13 00:41:03;;;;;;;3.58;1.38;;;;;;;6.26;100.00;99997.91;4999705;28;20041;-79
2023/12/13 00:43:32;;;;;;;3.92;1.60;;;;;;;6.16;100.00;99998.91;4999161;28;20060;-79
2023/12/13 00:45:57;;;;;;;1.95;0.95;;;;;;;6.01;100.00;99989.91;5032405;28;20117;-79
2023/12/13 00:48:23;;;;;;;1.75;0.85;;;;;;;5.98;100.00;99995.56;4999511;28;20124;-79
2023/12/13 00:50:49;;;;;;;1.25;0.77;;;;;;;6.11;100.00;100006.59;5031997;28;20120;-80
2023/12/13 00:53:14;;;;;;;2.58;0.70;;;;;;;6.21;100.00;100005.59;4998857;28;20072;-79
2023/12/13 00:55:40;;;;;;;1.85;0.80;;;;;;;6.27;100.00;100013.78;5015532;28;20108;-79
2023/12/13 00:58:06;;;;;;;3.13;1.05;;;;;;;6.28;100.00;100004.75;4999164;28;20061;-79
2023/12/13 01:00:31;;;;;;;4.00;1.05;;;;;;;6.24;100.00;100018.59;5015021;28;20131;-79
2023/12/13 01:03:04;;;;;;;1.48;0.82;;;;;;;6.11;100.00;100024.41;4999089;28;20449;-79
2023/12/13 01:05:48;;;;;;;7.45;1.60;;;;;;;6.00;100.00;100030.91;5015547;28;20053;-79
2023/12/13 01:08:35;;;;;;;3.05;1.00;;;;;;;5.94;100.00;100026.25;5018289;28;20021;-79
2023/12/13 01:11:33;;;;;;;1.45;0.80;;;;;;;5.99;100.00;100039.94;5031882;28;20087;-79
2023/12/13 01:14:53;;;;;;;4.03;1.20;;;;;;;6.03;100.00;100037.75;5027144;28;20103;-79
2023/12/13 01:17:32;;;;;;;2.88;1.15;;;;;;;6.25;100.00;100033.63;5032364;28;20061;-79
2023/12/13 01:20:40;;;;;;;5.88;1.25;;;;;;;6.16;100.00;100048.78;5015904;28;20091;-79
2023/12/13 01:23:09;;;;;;;1.48;0.82;;;;;;;5.95;100.00;100051.91;5015807;28;20041;-79
2023/12/13 01:25:42;;;;;;;;;;;;;;;6.00;100.00;100062.94;5017188;28;20475;-79
2023/12/13 01:28:08;;;;;;;5.18;1.00;;;;;;;5.96;100.00;100066.13;4998781;28;19913;-79
2023/12/13 01:30:36;;;;;;;1.88;0.93;;;;;;;5.98;100.00;100070.28;4998777;28;20078;-79
2023/12/13 01:33:02;;;;;;;4.20;0.80;;;;;;;5.97;100.00;100076.59;4998416;28;20396;-79
2023/12/13 01:35:28;;;;;;;1.60;0.80;;;;;;;5.91;100.00;100078.06;5015097;28;20041;-79
2023/12/13 01:37:57;;;;;;;1.92;0.88;;;;;;;5.84;100.00;100081.53;5014442;28;20037;-79
2023/12/13 01:40:22;;;;;;;2.15;1.00;;;;;;;5.85;100.00;100092.06;4999006;28;20037;-80
2023/12/13 01:43:03;;;;;;;5.47;1.73;;;;;;;5.88;100.00;100099.75;5015135;28;20482;-80
2023/12/13 01:45:38;;;;;;;5.00;1.02;;;;;;;6.07;100.00;100112.00;5002681;28;20033;-79
2023/12/13 01:48:22;;;;;;;2.53;0.70;;;;;;;6.19;100.00;100103.69;5002685;28;20049;-79
2023/12/13 01:50:49;;;;;;;1.92;0.80;;;;;;;6.23;100.00;100113.88;5019007;28;20056;-79
2023/12/13 01:53:47;;;;;;;3.45;1.02;;;;;;;6.26;100.00;100110.03;5003520;28;20075;-79
2023/12/13 01:56:12;;;;;;;1.27;0.93;;;;;;;6.33;100.00;100113.75;5003075;28;20041;-79
2023/12/13 01:58:41;;;;;;;4.32;1.38;;;;;;;6.41;100.00;100137.78;5035217;28;20030;-79
2023/12/13 02:01:16;;;;;;;1.10;0.80;;;;;;;6.38;100.00;100141.63;5017666;28;20040;-79
2023/12/13 02:03:46;;;;;;;4.32;0.90;;;;;;;6.34;100.00;100142.09;5018270;28;20462;-80
2023/12/13 02:06:11;;;;;;;3.08;0.80;;;;;;;6.36;100.00;100151.63;5034725;28;20160;-79
2023/12/13 02:08:37;;;;;;;3.22;1.35;;;;;;;6.43;100.00;100156.28;5002375;28;20524;-79
2023/12/13 02:11:03;;;;;;;8.43;2.05;;;;;;;6.45;100.00;100160.47;5002197;28;20029;-79
2023/12/13 02:13:32;;;;;;;3.28;1.02;;;;;;;6.49;100.00;100177.03;5001314;28;20120;-79
2023/12/13 02:16:00;;;;;;;2.72;1.15;;;;;;;6.50;100.00;100173.34;5018026;28;20052;-79
2023/12/13 02:18:45;;;;;;;;;;;;;;;;;;;;;
2023/12/13 02:21:37;;;;;;;4.07;0.98;;;;;;;6.56;100.00;100186.03;5025082;28;20049;-81
2023/12/13 02:24:10;;;;;;;3.63;1.00;;;;;;;6.58;100.00;100192.88;5002938;28;20037;-79
2023/12/13 02:26:40;;;;;;;1.27;0.77;;;;;;;6.66;100.00;100201.94;5017885;28;20030;-80
2023/12/13 02:29:05;;;;;;;3.50;1.15;;;;;;;6.71;100.00;100212.97;5001964;28;20041;-79
2023/12/13 02:31:31;;;;;;;3.50;0.90;;;;;;;6.69;100.00;100212.28;5001821;28;20486;-80
2023/12/13 02:34:00;;;;;;;2.75;1.10;;;;;;;6.69;100.00;100217.63;5001271;28;20380;-79
2023/12/13 02:36:26;;;;;;;3.08;1.10;;;;;;;6.71;100.00;100224.47;5002105;28;20041;-79
2023/12/13 02:38:54;;;;;;;2.17;0.75;;;;;;;6.76;100.00;100232.84;5001395;28;20103;-80
2023/12/13 02:41:23;;;;;;;7.25;1.30;;;;;;;6.74;100.00;100239.34;5001080;28;20037;-79
2023/12/13 02:43:49;;;;;;;1.55;0.82;;;;;;;6.73;100.00;100248.38;5017941;28;20042;-79
2023/12/13 02:46:18;;;;;;;1.67;0.75;;;;;;;6.72;100.00;100250.22;5001430;28;20025;-79
2023/12/13 02:48:46;;;;;;;9.27;1.30;;;;;;;6.75;100.00;100257.06;5002072;28;20037;-79
2023/12/13 02:51:14;;;;;;;3.17;1.13;;;;;;;6.78;100.00;100256.75;4985687;28;20124;-80
2023/12/13 02:53:40;;;;;;;2.53;1.05;;;;;;;6.79;100.00;100255.72;5001653;28;20124;-79
2023/12/13 02:56:07;;;;;;;6.05;1.52;;;;;;;6.76;100.00;100259.56;5033493;28;20029;-80
2023/12/13 02:58:33;;;;;;;4.50;1.58;;;;;;;6.81;100.00;100273.28;5017881;28;20026;-79
2023/12/13 03:01:01;;;;;;;1.52;0.90;;;;;;;6.81;100.00;100259.91;5001326;28;20092;-79
2023/12/13 03:03:26;;;;;;;3.22;1.10;;;;;;;6.81;100.00;100275.94;5001055;28;20120;-79
2023/12/13 03:05:52;;;;;;;4.32;1.00;;;;;;;6.69;100.00;100277.22;5000995;28;20455;-80
2023/12/13 03:08:18;;;;;;;3.97;1.20;;;;;;;6.62;100.00;100272.72;5000837;28;20037;-79
2023/12/13 03:10:46;;;;;;;4.70;1.10;;;;;;;6.50;100.00;100278.34;5000418;28;20033;-79
2023/12/13 03:13:11;;;;;;;4.20;1.20;;;;;;;6.45;100.00;100283.31;5017237;28;20472;-79
2023/12/13 03:15:37;;;;;;;2.55;0.60;;;;;;;6.43;100.00;100279.16;5033516;28;20087;-79
2023/12/13 03:18:03;;;;;;;6.28;1.33;;;;;;;6.44;100.00;100284.34;5017063;28;20504;-79
2023/12/13 03:20:30;;;;;;;5.75;2.17;;;;;;;6.43;100.00;100277.34;5001298;28;20033;-79
2023/12/13 03:22:56;;;;;;;3.08;1.08;;;;;;;6.50;100.00;100290.88;5017859;28;20026;-79
2023/12/13 03:25:22;;;;;;;4.85;1.35;;;;;;;6.49;100.00;100287.38;5001252;28;20037;-79
2023/12/13 03:27:48;;;;;;;2.03;0.80;;;;;;;6.54;100.00;100287.72;5000978;28;20464;-80
2023/12/13 03:30:17;;;;;;;6.50;1.42;;;;;;;6.55;100.00;100294.72;5000273;28;20026;-78
2023/12/13 03:32:50;;;;;;;6.07;1.98;;;;;;;6.55;100.00;100297.41;5016487;28;20061;-79
2023/12/13 03:35:49;;;;;;;3.55;0.98;;;;;;;6.51;100.00;100292.53;5001338;28;20046;-79
2023/12/13 03:38:20;;;;;;;4.68;0.80;;;;;;;6.51;100.00;100300.53;4978963;28;20041;-79
2023/12/13 03:40:46;;;;;;;2.20;0.90;;;;;;;6.50;100.00;100306.91;4999291;28;20128;-79
2023/12/13 03:43:13;;;;;;;1.73;1.02;;;;;;;6.38;100.00;100311.69;5000470;28;20124;-79
2023/12/13 03:45:38;;;;;;;4.85;1.27;;;;;;;6.30;100.00;100309.81;5000020;28;20031;-80
2023/12/13 03:48:04;;;;;;;3.88;1.10;;;;;;;6.32;100.00;100320.31;5000541;28;20045;-79
2023/12/13 03:50:30;;;;;;;8.52;1.50;;;;;;;6.32;100.00;100314.97;5000232;28;20069;-79
2023/12/13 03:52:55;;;;;;;2.85;0.90;;;;;;;6.34;100.00;100318.34;5000617;28;20087;-79
2023/12/13 03:55:21;;;;;;;2.85;1.10;;;;;;;6.32;100.00;100325.66;4984540;28;20120;-79
2023/12/13 03:57:47;;;;;;;4.78;1.05;;;;;;;6.29;100.00;100323.31;5033364;28;20033;-79
2023/12/13 04:00:13;;;;;;;3.75;0.90;;;;;;;6.33;100.00;100335.38;5016094;28;20037;-79
2023/12/13 04:02:41;;;;;;;8.07;1.60;;;;;;;6.38;100.00;100333.88;5000087;28;20033;-79
2023/12/13 04:05:07;;;;;;;0.73;0.60;;;;;;;6.41;100.00;100345.25;4999673;28;20103;-80
2023/12/13 04:07:33;;;;;;;2.40;0.80;;;;;;;6.43;100.00;100336.09;4999028;28;20120;-79
2023/12/13 04:09:59;;;;;;;6.18;1.73;;;;;;;6.46;100.00;100348.28;4999985;28;20124;-79
2023/12/13 04:12:24;;;;;;;5.65;1.00;;;;;;;6.43;100.00;100344.09;5016189;28;20060;-79
2023/12/13 04:14:50;;;;;;;0.98;0.82;;;;;;;6.44;100.00;100342.25;4999742;28;20033;-79
2023/12/13 04:17:19;;;;;;;4.18;1.38;;;;;;;6.44;100.00;100356.44;5016626;28;20530;-79
2023/12/13 04:19:44;;;;;;;5.13;1.27;;;;;;;6.39;100.00;100366.75;5016490;28;20029;-79
2023/12/13 04:22:10;;;;;;;4.82;1.08;;;;;;;6.26;100.00;100367.19;5015619;28;20587;-81
2023/12/13 04:24:36;;;;;;;1.67;0.93;;;;;;;6.14;100.00;100371.13;4999792;28;20037;-79
2023/12/13 04:27:02;;;;;;;4.57;0.90;;;;;;;6.10;100.00;100367.09;5000190;28;20036;-79
2023/12/13 04:29:27;;;;;;;3.15;1.17;;;;;;;6.18;100.00;100377.81;5000174;28;20099;-79
2023/12/13 04:31:55;;;;;;;3.40;1.10;;;;;;;6.23;100.00;100380.03;4998031;28;20045;-79
2023/12/13 04:34:21;;;;;;;4.25;1.50;;;;;;;6.24;100.00;100382.50;5016235;28;20056;-79
2023/12/13 04:36:49;;;;;;;3.38;0.93;;;;;;;6.12;100.00;100386.47;4998488;28;20487;-81
2023/12/13 04:39:14;;;;;;;6.05;1.48;;;;;;;6.09;100.00;100386.78;4999967;28;20045;-79
2023/12/13 04:41:40;;;;;;;1.92;1.00;;;;;;;6.15;100.00;100400.31;4999638;28;20058;-79
2023/12/13 04:44:08;;;;;;;8.52;1.42;;;;;;;6.18;100.00;100393.00;4998961;28;20104;-81
2023/12/13 04:46:34;;;;;;;3.92;0.90;;;;;;;6.16;100.00;100395.81;5015826;28;20036;-80
2023/12/13 04:49:00;;;;;;;4.25;0.90;;;;;;;6.08;100.00;100387.75;5015902;28;20037;-79
2023/12/13 04:51:26;;;;;;;13.20;1.67;;;;;;;6.01;100.00;100392.06;5015394;28;20025;-79
2023/12/13 04:53:52;;;;;;;7.88;1.38;;;;;;;5.95;100.00;100393.47;4998631;28;20037;-79
2023/12/13 04:57:00;;;;;;;1.92;0.90;;;;;;;5.94;100.00;100414.00;4999034;28;20052;-79
2023/12/13 05:00:06;;;;;;;7.22;2.08;;;;;;;5.91;100.00;100400.09;5024304;28;20029;-79
2023/12/13 05:03:07;;;;;;;7.25;0.95;;;;;;;6.00;100.00;100406.38;5034338;28;20110;-79
2023/12/13 05:06:14;;;;;;;;;;;;;;;;;;;;;
2023/12/13 05:10:08;;;;;;;6.20;1.10;;;;;;;6.09;100.00;100426.81;4981751;28;20497;-79
2023/12/13 05:12:33;;;;;;;5.88;1.23;;;;;;;6.15;100.00;100442.19;4983649;28;20041;-79
2023/12/13 05:14:59;;;;;;;4.78;1.10;;;;;;;6.15;100.00;100452.88;4998951;28;20037;-79
2023/12/13 05:17:27;;;;;;;3.22;1.10;;;;;;;6.12;100.00;100454.03;4998921;28;20377;-79
2023/12/13 05:19:58;;;;;;;7.72;1.58;;;;;;;6.13;100.00;100447.69;5001165;28;20033;-79
2023/12/13 05:22:23;;;;;;;4.32;1.27;;;;;;;6.07;100.00;100458.97;5002905;28;20179;-79
2023/12/13 05:24:49;;;;;;;3.10;1.00;;;;;;;6.01;100.00;100462.28;5002999;28;20117;-78
2023/12/13 05:27:16;;;;;;;4.75;1.02;;;;;;;6.00;100.00;100463.25;5018574;28;20030;-79
2023/12/13 05:29:45;;;;;;;4.82;1.20;;;;;;;5.98;100.00;100473.25;5018696;28;20036;-79
2023/12/13 05:32:10;;;;;;;2.83;0.90;;;;;;;5.98;100.00;100478.59;5002229;28;20041;-79
2023/12/13 05:34:41;;;;;;;5.47;1.48;;;;;;;5.92;100.00;100492.50;5002958;28;20388;-79
2023/12/13 05:37:10;;;;;;;5.70;1.20;;;;;;;5.77;100.00;100486.88;5002543;28;20391;-79
2023/12/13 05:39:36;;;;;;;3.70;1.17;;;;;;;5.61;100.00;100495.53;5002364;28;20033;-80
2023/12/13 05:42:01;;;;;;;5.75;1.25;;;;;;;5.63;100.00;100501.53;5002451;28;20459;-79
2023/12/13 05:44:27;;;;;;;1.70;0.90;;;;;;;5.75;100.00;100504.84;5019173;28;20033;-79
2023/12/13 05:46:54;;;;;;;2.55;1.20;;;;;;;5.93;100.00;100495.06;5035188;28;20083;-79
2023/12/13 05:49:19;;;;;;;3.05;1.17;;;;;;;6.08;100.00;100499.84;5002746;28;20041;-79
2023/12/13 05:51:45;;;;;;;6.05;1.33;;;;;;;6.11;100.00;100505.75;5002118;28;20025;-79
2023/12/13 05:54:11;;;;;;;4.95;1.17;;;;;;;6.14;100.00;100509.94;5002005;28;20123;-79
2023/12/13 05:56:37;;;;;;;6.70;1.35;;;;;;;6.13;100.00;100506.41;5017950;28;20041;-82
2023/12/13 05:59:03;;;;;;;2.58;1.00;;;;;;;6.14;100.00;100513.44;5017842;28;20040;-79
2023/12/13 06:01:31;;;;;;;4.28;0.93;;;;;;;6.14;100.00;100515.28;5003430;28;20081;-79
2023/12/13 06:03:57;;;;;;;8.63;1.55;;;;;;;6.15;100.00;100528.47;5002299;28;20051;-78
2023/12/13 06:06:23;;;;;;;5.25;1.40;;;;;;;6.14;100.00;100521.44;5001678;28;20042;-80
2023/12/13 06:08:48;;;;;;;7.03;1.65;;;;;;;6.16;100.00;100516.78;5001790;28;20040;-79
2023/12/13 06:11:14;;;;;;;8.15;1.27;;;;;;;6.20;100.00;100513.81;5017705;28;20030;-79
2023/12/13 06:13:41;;;;;;;6.15;1.20;;;;;;;6.18;100.00;100521.13;5001496;28;20434;-79
2023/12/13 06:16:12;;;;;;;4.93;1.00;;;;;;;6.22;100.00;100520.69;5034142;28;20040;-79
2023/12/13 06:18:39;;;;;;;3.92;1.38;;;;;;;6.23;100.00;100525.03;5034583;28;20100;-79
2023/12/13 06:21:13;;;;;;;4.93;1.13;;;;;;;6.23;100.00;100522.34;5034502;28;20026;-79
2023/12/13 06:23:38;;;;;;;5.82;1.30;;;;;;;6.17;100.00;100528.31;5001412;28;20057;-79
2023/12/13 06:26:13;;;;;;;2.58;0.90;;;;;;;6.12;100.00;100533.28;5001652;28;20030;-79
2023/12/13 06:28:39;;;;;;;3.88;1.40;;;;;;;6.12;100.00;100543.94;5033815;28;20029;-80
2023/12/13 06:31:05;;;;;;;10.57;1.63;;;;;;;6.06;100.00;100558.75;5000619;28;20029;-79
2023/12/13 06:33:52;;;;;;;7.80;2.67;;;;;;;5.93;100.00;100555.56;5001162;28;20044;-79
2023/12/13 06:36:18;;;;;;;7.05;1.20;;;;;;;5.77;100.00;100561.56;5034046;28;20112;-79
2023/12/13 06:38:49;;;;;;;3.55;1.10;;;;;;;5.54;100.00;100554.97;5001344;28;20136;-79
2023/12/13 06:41:17;;;;;;;4.72;1.20;;;;;;;5.32;100.00;100559.69;5000255;28;20492;-79
2023/12/13 06:43:45;;;;;;;2.53;1.10;;;;;;;5.11;100.00;100554.56;5001018;28;20566;-80
2023/12/13 06:46:11;;;;;;;4.13;1.52;;;;;;;4.99;100.00;100558.38;5002008;28;20035;-79
2023/12/13 06:48:37;;;;;;;6.20;1.35;;;;;;;4.83;100.00;100556.31;5001845;28;20033;-79
2023/12/13 06:51:03;;;;;;;2.17;1.15;;;;;;;4.69;100.00;100554.13;5001510;28;20060;-80
2023/12/13 06:53:52;;;;;;;2.65;0.82;;;;;;;4.87;100.00;100557.72;5017559;28;20488;-79
2023/12/13 06:56:21;;;;;;;5.75;1.00;;;;;;;4.85;100.00;100555.19;5033856;28;20029;-79
2023/12/13 06:58:47;;;;;;;6.28;1.33;;;;;;;4.80;100.00;100557.44;4996834;28;20053;-79
2023/12/13 07:01:12;;;;;;;4.75;1.25;;;;;;;4.72;100.00;100572.47;5000847;28;20029;-80
2023/12/13 07:03:39;;;;;;;8.80;1.83;;;;;;;4.68;100.00;100568.41;5001511;28;20044;-79
2023/12/13 07:06:05;;;;;;;5.03;1.25;;;;;;;4.67;100.00;100572.91;5001414;28;20132;-79
2023/12/13 07:08:34;;;;;;;5.22;0.85;;;;;;;4.76;100.00;100577.38;5000207;28;20124;-80
2023/12/13 07:11:06;;;;;;;2.63;0.88;;;;;;;4.66;100.00;100587.22;5033487;28;20391;-79
2023/12/13 07:13:33;;;;;;;10.10;1.42;;;;;;;4.63;100.00;100583.00;5000814;28;20132;-80
2023/12/13 07:15:59;;;;;;;4.05;1.00;;;;;;;4.54;100.00;100594.47;5000448;28;20029;-79
2023/12/13 07:18:25;;;;;;;6.32;1.25;;;;;;;4.49;100.00;100596.72;5001234;28;20030;-79
2023/12/13 07:20:51;;;;;;;1.95;1.05;;;;;;;4.48;100.00;100596.88;5001087;28;20040;-80
2023/12/13 07:23:19;;;;;;;3.38;1.02;;;;;;;4.34;100.00;100616.75;5017410;28;20052;-79
2023/12/13 07:25:45;;;;;;;6.35;1.38;;;;;;;4.27;100.00;100613.81;5000650;28;20041;-79
2023/12/13 07:28:13;;;;;;;3.97;1.00;;;;;;;4.30;100.00;100624.19;5001022;28;20038;-80
2023/12/13 07:30:41;;;;;;;4.07;0.93;;;;;;;4.27;100.00;100627.13;5016935;28;20035;-79
2023/12/13 07:33:10;;;;;;;4.90;1.45;;;;;;;4.14;100.00;100626.56;5016848;28;20037;-78
2023/12/13 07:35:36;;;;;;;3.47;1.20;;;;;;;3.94;100.00;100630.97;5000286;28;20045;-79
2023/12/13 07:38:03;;;;;;;8.38;1.05;;;;;;;3.67;100.00;100632.44;5000250;28;20570;-79
2023/12/13 07:40:29;;;;;;;5.13;1.50;;;;;;;3.68;100.00;100635.97;4984115;28;20381;-79
2023/12/13 07:42:55;;;;;;;8.93;1.13;;;;;;;3.61;100.00;100637.44;5000587;28;20040;-79
2023/12/13 07:45:22;;;;;;;3.00;0.88;;;;;;;3.49;100.00;100644.66;5015442;28;20033;-79
2023/12/13 07:47:49;;;;;;;6.68;1.17;;;;;;;3.59;100.00;100647.38;5000103;28;20029;-79
2023/12/13 07:50:15;;;;;;;3.25;1.00;;;;;;;3.59;100.00;100655.34;5033142;28;20030;-79
2023/12/13 07:52:41;;;;;;;4.72;1.50;;;;;;;3.59;100.00;100665.97;5033079;28;20033;-79
2023/12/13 07:55:10;;;;;;;4.93;1.15;;;;;;;3.58;100.00;100666.97;5016234;28;20029;-79
2023/12/13 07:57:35;;;;;;;3.40;1.10;;;;;;;3.53;100.00;100678.84;4999326;28;20357;-79
2023/12/13 08:00:03;;;;;;;4.47;1.13;;;;;;;3.36;100.00;100675.94;5015657;28;20048;-79
2023/12/13 08:02:31;;;;;;;3.45;1.10;;;;;;;3.37;100.00;100686.44;5031311;28;20029;-78
2023/12/13 08:05:00;;;;;;;3.58;1.27;;;;;;;3.40;100.00;100683.53;4999138;28;20128;-79
2023/12/13 08:07:26;;;;;;;5.95;1.30;;;;;;;3.42;100.00;100692.22;5015788;28;20395;-78
2023/12/13 08:09:59;;;;;;;3.63;0.90;;;;;;;3.56;100.00;100700.81;5016384;28;20041;-78
2023/12/13 08:12:26;;;;;;;4.22;1.00;;;;;;;3.59;100.00;100713.84;5017233;28;20435;-78
2023/12/13 08:14:54;;;;;;;5.95;1.00;;;;;;;3.53;100.00;100724.03;4999292;28;20029;-79
2023/12/13 08:17:23;;;;;;;4.85;1.00;;;;;;;3.41;100.00;100730.38;4999415;28;20072;-80
2023/12/13 08:19:48;;;;;;;6.35;1.08;;;;;;;3.44;100.00;100735.47;5016403;28;20036;-79
2023/12/13 08:22:15;;;;;;;5.55;1.40;;;;;;;3.42;100.00;100734.75;5016424;28;20050;-78
2023/12/13 08:24:42;;;;;;;3.45;0.90;;;;;;;3.37;100.00;100742.25;4999371;28;20480;-78
2023/12/13 08:27:07;;;;;;;8.48;1.15;;;;;;;3.27;100.00;100742.19;4997972;28;20113;-79
2023/12/13 08:29:35;;;;;;;3.60;1.40;;;;;;;3.23;100.00;100740.78;5013897;28;20124;-79
2023/12/13 08:32:04;;;;;;;3.30;1.63;;;;;;;3.24;100.00;100760.22;5013618;28;20038;-79
2023/12/13 08:34:30;;;;;;;6.95;1.70;;;;;;;3.21;100.00;100760.47;5014055;28;20045;-78
2023/12/13 08:36:58;;;;;;;2.20;1.27;;;;;;;3.17;100.00;100765.19;4997975;28;20439;-79
2023/12/13 08:39:27;;;;;;;2.88;1.15;;;;;;;3.25;100.00;100772.50;5029976;28;20068;-79
2023/12/13 08:41:53;;;;;;;4.50;1.20;;;;;;;3.30;100.00;100788.91;4998914;28;20029;-79
2023/12/13 08:44:23;;;;;;;4.32;1.15;;;;;;;3.32;100.00;100788.81;4999489;28;20487;-79
2023/12/13 08:46:49;;;;;;;5.70;1.10;;;;;;;3.25;100.00;100785.78;5016632;28;20060;-79
2023/12/13 08:49:14;;;;;;;5.80;1.27;;;;;;;3.19;100.00;100784.50;4999476;28;20473;-79
2023/12/13 08:51:40;;;;;;;5.13;1.58;;;;;;;3.23;100.00;100777.97;5014956;28;20092;-81
2023/12/13 08:54:06;;;;;;;4.15;1.20;;;;;;;3.33;100.00;100790.47;4999120;28;20384;-80
2023/12/13 08:56:31;;;;;;;1.15;1.05;;;;;;;3.44;100.00;100791.28;4999681;28;20052;-79
2023/12/13 08:58:58;;;;;;;4.63;1.00;;;;;;;3.51;100.00;100796.91;4999614;28;20034;-79
2023/12/13 09:01:26;;;;;;;4.28;1.33;;;;;;;3.46;100.00;100797.28;5015873;28;20057;-79
2023/12/13 09:03:52;;;;;;;3.95;1.30;;;;;;;3.39;100.00;100808.59;5031279;28;20040;-79
2023/12/13 09:06:18;;;;;;;5.28;1.10;;;;;;;3.43;100.00;100802.88;4999128;28;20045;-79
2023/12/13 09:08:44;;;;;;;5.05;0.95;;;;;;;3.44;100.00;100809.88;4998142;28;20036;-82
2023/12/13 09:11:11;;;;;;;6.32;1.20;;;;;;;3.43;100.00;100808.19;4999282;28;20127;-82
2023/12/13 09:13:37;;;;;;;8.80;2.35;;;;;;;3.43;100.00;100802.88;5015370;28;20488;-82
2023/12/13 09:16:04;;;;;;;0.68;0.60;;;;;;;3.51;100.00;100811.03;4998773;28;20034;-82
2023/12/13 09:18:30;;;;;;;1.95;0.75;;;;;;;3.73;100.00;100801.25;4999384;28;20034;-82
2023/12/13 09:21:27;;;;;;;3.10;1.10;;;;;;;3.90;100.00;100802.47;5016182;28;20449;-82
2023/12/13 09:23:56;;;;;;;2.75;1.02;;;;;;;4.02;100.00;100797.91;5002970;28;20045;-82
2023/12/13 09:26:22;;;;;;;6.05;1.48;;;;;;;4.07;100.00;100809.00;4999238;28;20482;-82
2023/12/13 09:28:47;;;;;;;9.98;1.52;;;;;;;4.19;100.00;100813.28;4999425;28;20036;-82
2023/12/13 09:31:13;;;;;;;3.70;1.30;;;;;;;4.27;100.00;100812.59;5015275;28;20029;-82
2023/12/13 09:33:39;;;;;;;2.88;1.10;;;;;;;4.41;100.00;100823.72;4999749;28;20449;-81
2023/12/13 09:36:53;;;;;;;2.17;0.90;;;;;;;4.58;100.00;100829.41;5000510;28;20037;-82
2023/12/13 09:39:22;;;;;;;3.65;0.80;;;;;;;4.82;100.00;100832.53;5020747;28;20033;-82
2023/12/13 09:42:00;;;;;;;3.17;0.95;;;;;;;4.97;100.00;100837.47;5032075;28;20046;-82
2023/12/13 09:44:26;;;;;;;5.40;1.27;;;;;;;5.12;100.00;100838.75;4999303;28;20415;-82
2023/12/13 09:46:53;;;;;;;8.63;1.45;;;;;;;5.27;100.00;100840.03;4999025;28;20120;-81
2023/12/13 09:49:23;;;;;;;2.83;1.30;;;;;;;5.44;100.00;100832.31;4997903;28;20064;-82
2023/12/13 09:51:49;;;;;;;2.05;0.80;;;;;;;5.55;100.00;100837.50;4996400;28;20037;-81
2023/12/13 09:54:15;;;;;;;2.92;1.05;;;;;;;5.59;100.00;100835.41;4998197;28;20099;-81
2023/12/13 09:56:44;;;;;;;1.20;0.80;;;;;;;5.75;100.00;100830.34;5031758;28;20033;-82
2023/12/13 09:59:11;;;;;;;3.42;0.90;;;;;;;5.75;100.00;100834.84;5031516;28;20108;-81
2023/12/13 10:01:39;;;;;;;5.22;1.02;;;;;;;5.75;100.00;100835.69;5014021;28;20048;-81
2023/12/13 10:04:06;;;;;;;3.95;0.90;;;;;;;5.93;100.00;100843.81;4998419;28;20034;-82
2023/12/13 10:06:32;;;;;;;6.43;1.58;;;;;;;6.09;100.00;100852.06;5016991;28;20029;-80
2023/12/13 10:08:57;;;;;;;2.35;0.90;;;;;;;6.01;100.00;100854.63;5017774;28;20127;-80
2023/12/13 10:11:24;;;;;;;4.85;1.00;;;;;;;5.90;100.00;100868.94;5018293;28;20468;-81
2023/12/13 10:13:50;;;;;;;2.30;1.10;;;;;;;5.86;100.00;100870.19;5018574;28;20502;-81
2023/12/13 10:16:16;;;;;;;5.03;1.10;;;;;;;6.03;100.00;100882.00;5017932;28;20033;-80
2023/12/13 10:18:43;;;;;;;3.65;1.00;;;;;;;6.23;100.00;100871.28;5018767;28;20037;-81
2023/12/13 10:21:09;;;;;;;1.13;0.70;;;;;;;6.46;100.00;100880.63;5018012;28;20555;-81
2023/12/13 10:23:38;;;;;;;2.70;1.10;;;;;;;6.55;100.00;100885.09;5017931;28;20037;-81
2023/12/13 10:26:05;;;;;;;2.40;1.35;;;;;;;6.56;100.00;100880.59;5001899;28;20040;-81
2023/12/13 10:28:34;;;;;;;3.28;1.33;;;;;;;6.46;100.00;100875.31;5017789;28;20037;-80
2023/12/13 10:31:00;;;;;;;5.10;1.30;;;;;;;6.28;100.00;100871.69;5002136;28;20060;-81
2023/12/13 10:33:26;;;;;;;6.95;1.23;;;;;;;6.00;100.00;100884.13;5017982;28;20033;-80
2023/12/13 10:35:53;;;;;;;2.97;1.23;;;;;;;5.74;100.00;100884.66;5034790;28;20038;-80
2023/12/13 10:38:23;;;;;;;2.33;1.23;;;;;;;5.53;100.00;100890.19;5018395;28;20068;-80
2023/12/13 10:40:49;;;;;;;5.43;1.60;;;;;;;5.51;100.00;100902.78;5002233;28;20025;-80
2023/12/13 10:43:15;;;;;;;3.20;1.08;;;;;;;5.61;100.00;100906.31;5018088;28;20041;-80
2023/12/13 10:45:45;;;;;;;6.38;1.30;;;;;;;6.03;100.00;100916.69;5033770;28;20041;-81
2023/12/13 10:48:16;;;;;;;4.20;1.17;;;;;;;6.51;100.00;100918.44;5001563;28;20443;-81
2023/12/13 10:50:44;;;;;;;7.93;1.48;;;;;;;6.73;100.00;100921.75;5033927;28;20072;-82
2023/12/13 10:53:11;;;;;;;5.57;1.15;;;;;;;6.93;100.00;100926.03;5033525;28;20030;-81
2023/12/13 10:55:39;;;;;;;6.78;1.40;;;;;;;7.01;100.00;100923.44;5001890;28;20060;-81
2023/12/13 10:58:05;;;;;;;3.38;1.38;;;;;;;7.16;100.00;100929.13;5018007;28;20087;-81
2023/12/13 11:00:32;;;;;;;2.17;1.15;;;;;;;7.67;100.00;100919.63;5001136;28;20038;-81
2023/12/13 11:03:15;;;;;;;3.40;1.35;;;;;;;7.83;100.00;100936.81;5001681;28;20041;-81
2023/12/13 11:05:42;;;;;;;4.30;1.40;;;;;;;7.72;100.00;100941.41;5017067;28;20029;-81
2023/12/13 11:08:17;;;;;;;7.05;1.48;;;;;;;7.63;100.00;100946.84;5017638;28;20060;-81
2023/12/13 11:11:08;;;;;;;4.60;1.00;;;;;;;7.57;100.00;100950.97;5034108;28;20028;-81
2023/12/13 11:13:39;;;;;;;2.78;0.95;;;;;;;7.57;100.00;100956.34;5017395;28;20029;-81
2023/12/13 11:16:25;;;;;;;1.92;0.98;;;;;;;7.62;100.00;100963.88;5017733;28;20068;-81
2023/12/13 11:18:53;;;;;;;3.30;1.02;;;;;;;7.65;100.00;100955.56;5001113;28;20048;-81
2023/12/13 11:21:26;;;;;;;2.42;1.00;;;;;;;7.77;100.00;100964.22;5001006;28;20116;-81
2023/12/13 11:23:58;;;;;;;3.78;1.15;;;;;;;7.86;100.00;100971.34;5017582;28;20038;-80
2023/12/13 11:26:26;;;;;;;3.20;1.17;;;;;;;8.00;100.00;100975.31;5001314;28;20116;-81
2023/12/13 11:28:56;;;;;;;4.28;1.20;;;;;;;8.12;100.00;100968.69;4985100;28;20124;-81
2023/12/13 11:31:22;;;;;;;4.65;1.50;;;;;;;8.24;100.00;100978.19;5016108;28;20112;-81
2023/12/13 11:33:58;;;;;;;2.78;0.98;;;;;;;8.36;100.00;100976.09;5015817;28;20041;-80
2023/12/13 11:36:38;;;;;;;4.00;1.40;;;;;;;8.48;100.00;100974.03;5016986;28;20042;-81
2023/12/13 11:40:19;;;;;;;4.22;1.08;;;;;;;8.48;100.00;100961.47;5001639;28;20033;-80
2023/12/13 11:42:55;;;;;;;6.38;1.48;;;;;;;8.49;100.00;100967.66;4992284;28;20045;-80